sensor_id;sensor_type;location;lat;lon;timestamp;pressure;altitude;pressure_sealevel;temperature;humidity
6833;BME280;3454;42.654;23.378;2023-08-08T00:01:17;64675.00;;;16.25;100.00
6833;BME280;3454;42.654;23.378;2023-08-08T00:03:42;64701.66;;;16.51;100.00
6833;BME280;3454;42.654;23.378;2023-08-08T00:06:08;64690.28;;;16.43;100.00
6833;BME280;3454;42.654;23.378;2023-08-08T00:08:33;64677.22;;;16.27;100.00
6833;BME280;3454;42.654;23.378;2023-08-08T00:10:59;64659.81;;;16.13;100.00
6833;BME280;3454;42.654;23.378;2023-08-08T00:13:24;64664.22;;;16.17;100.00
6833;BME280;3454;42.654;23.378;2023-08-08T00:15:50;64649.91;;;16.04;100.00
6833;BME280;3454;42.654;23.378;2023-08-08T00:18:15;64639.78;;;15.92;100.00
6833;BME280;3454;42.654;23.378;2023-08-08T00:20:40;64667.31;;;16.18;100.00
6833;BME280;3454;42.654;23.378;2023-08-08T00:23:06;64646.41;;;15.98;100.00
6833;BME280;3454;42.654;23.378;2023-08-08T00:25:32;64651.00;;;16.05;100.00
6833;BME280;3454;42.654;23.378;2023-08-08T00:27:57;64643.28;;;15.98;100.00
6833;BME280;3454;42.654;23.378;2023-08-08T00:30:22;64640.00;;;15.95;100.00
6833;BME280;3454;42.654;23.378;2023-08-08T00:32:48;64621.28;;;15.78;100.00
6833;BME280;3454;42.654;23.378;2023-08-08T00:35:14;64630.09;;;15.86;100.00
6833;BME280;3454;42.654;23.378;2023-08-08T00:37:40;64623.50;;;15.80;100.00
6833;BME280;3454;42.654;23.378;2023-08-08T00:40:05;64624.03;;;15.80;100.00
6833;BME280;3454;42.654;23.378;2023-08-08T00:42:31;64627.34;;;15.83;100.00
6833;BME280;3454;42.654;23.378;2023-08-08T00:44:56;64627.69;;;15.81;100.00
6833;BME280;3454;42.654;23.378;2023-08-08T00:47:27;64619.66;;;15.76;100.00
6833;BME280;3454;42.654;23.378;2023-08-08T00:49:53;64631.53;;;15.85;100.00
6833;BME280;3454;42.654;23.378;2023-08-08T00:52:19;64619.44;;;15.74;100.00
6833;BME280;3454;42.654;23.378;2023-08-08T00:54:44;64627.34;;;15.83;100.00
6833;BME280;3454;42.654;23.378;2023-08-08T00:57:10;64629.91;;;15.83;100.00
6833;BME280;3454;42.654;23.378;2023-08-08T00:59:36;64614.50;;;15.69;100.00
6833;BME280;3454;42.654;23.378;2023-08-08T01:02:01;64605.34;;;15.63;100.00
6833;BME280;3454;42.654;23.378;2023-08-08T01:04:27;64599.50;;;15.60;100.00
6833;BME280;3454;42.654;23.378;2023-08-08T01:07:06;64575.06;;;15.36;100.00
6833;BME280;3454;42.654;23.378;2023-08-08T01:09:39;64615.25;;;15.72;100.00
6833;BME280;3454;42.654;23.378;2023-08-08T01:12:08;64611.63;;;15.71;100.00
6833;BME280;3454;42.654;23.378;2023-08-08T01:14:36;64597.09;;;15.56;100.00
6833;BME280;3454;42.654;23.378;2023-08-08T01:17:03;64592.91;;;15.54;100.00
6833;BME280;3454;42.654;23.378;2023-08-08T01:19:31;64600.75;;;15.57;100.00
6833;BME280;3454;42.654;23.378;2023-08-08T01:22:05;64592.50;;;15.49;100.00
6833;BME280;3454;42.654;23.378;2023-08-08T01:24:33;64590.50;;;15.50;100.00
6833;BME280;3454;42.654;23.378;2023-08-08T01:27:02;64580.38;;;15.38;100.00
6833;BME280;3454;42.654;23.378;2023-08-08T01:29:28;64582.56;;;15.40;100.00
6833;BME280;3454;42.654;23.378;2023-08-08T01:31:54;64570.34;;;15.34;100.00
6833;BME280;3454;42.654;23.378;2023-08-08T01:34:20;64578.72;;;15.37;100.00
6833;BME280;3454;42.654;23.378;2023-08-08T01:37:00;64586.44;;;15.44;100.00
6833;BME280;3454;42.654;23.378;2023-08-08T01:39:30;64567.03;;;15.31;100.00
6833;BME280;3454;42.654;23.378;2023-08-08T01:41:56;64567.38;;;15.29;100.00
6833;BME280;3454;42.654;23.378;2023-08-08T01:44:22;64569.38;;;15.28;100.00
6833;BME280;3454;42.654;23.378;2023-08-08T01:46:52;64571.56;;;15.30;100.00
6833;BME280;3454;42.654;23.378;2023-08-08T01:49:18;64552.19;;;15.17;100.00
6833;BME280;3454;42.654;23.378;2023-08-08T01:51:43;64546.81;;;15.07;100.00
6833;BME280;3454;42.654;23.378;2023-08-08T01:54:09;64545.41;;;15.08;100.00
6833;BME280;3454;42.654;23.378;2023-08-08T01:56:34;64542.09;;;15.05;100.00
6833;BME280;3454;42.654;23.378;2023-08-08T01:58:59;64544.06;;;15.05;100.00
6833;BME280;3454;42.654;23.378;2023-08-08T02:01:26;64535.16;;;15.01;100.00
6833;BME280;3454;42.654;23.378;2023-08-08T02:03:51;64532.53;;;14.94;100.00
6833;BME280;3454;42.654;23.378;2023-08-08T02:06:17;64552.88;;;15.13;100.00
6833;BME280;3454;42.654;23.378;2023-08-08T02:08:43;64543.53;;;15.04;100.00
6833;BME280;3454;42.654;23.378;2023-08-08T02:11:08;64536.59;;;15.00;100.00
6833;BME280;3454;42.654;23.378;2023-08-08T02:13:34;64537.69;;;15.01;100.00
6833;BME280;3454;42.654;23.378;2023-08-08T02:15:59;64542.63;;;15.06;100.00
6833;BME280;3454;42.654;23.378;2023-08-08T02:18:24;64535.50;;;14.99;100.00
6833;BME280;3454;42.654;23.378;2023-08-08T02:20:50;64524.84;;;14.87;100.00
6833;BME280;3454;42.654;23.378;2023-08-08T02:23:16;64522.28;;;14.87;100.00
6833;BME280;3454;42.654;23.378;2023-08-08T02:25:41;64503.28;;;14.72;100.00
6833;BME280;3454;42.654;23.378;2023-08-08T02:28:07;64505.59;;;14.70;100.00
6833;BME280;3454;42.654;23.378;2023-08-08T02:30:32;64505.81;;;14.72;100.00
6833;BME280;3454;42.654;23.378;2023-08-08T02:32:58;64511.53;;;14.80;100.00
6833;BME280;3454;42.654;23.378;2023-08-08T02:35:24;64511.66;;;14.75;100.00
6833;BME280;3454;42.654;23.378;2023-08-08T02:37:49;64515.16;;;14.81;100.00
6833;BME280;3454;42.654;23.378;2023-08-08T02:40:14;64517.91;;;14.83;100.00
6833;BME280;3454;42.654;23.378;2023-08-08T02:42:40;64524.50;;;14.89;100.00
6833;BME280;3454;42.654;23.378;2023-08-08T02:45:06;64508.03;;;14.74;100.00
6833;BME280;3454;42.654;23.378;2023-08-08T02:47:32;64513.50;;;14.79;100.00
6833;BME280;3454;42.654;23.378;2023-08-08T02:49:57;64526.69;;;14.91;100.00
6833;BME280;3454;42.654;23.378;2023-08-08T02:52:23;64524.28;;;14.87;100.00
6833;BME280;3454;42.654;23.378;2023-08-08T02:54:49;64535.81;;;14.97;100.00
6833;BME280;3454;42.654;23.378;2023-08-08T02:57:14;64530.34;;;14.92;100.00
6833;BME280;3454;42.654;23.378;2023-08-08T02:59:40;64519.88;;;14.83;100.00
6833;BME280;3454;42.654;23.378;2023-08-08T03:02:05;64516.03;;;14.79;100.00
6833;BME280;3454;42.654;23.378;2023-08-08T03:04:31;64527.25;;;14.92;100.00
6833;BME280;3454;42.654;23.378;2023-08-08T03:06:56;64520.66;;;14.86;100.00
6833;BME280;3454;42.654;23.378;2023-08-08T03:09:22;64516.03;;;14.79;100.00
6833;BME280;3454;42.654;23.378;2023-08-08T03:11:48;64515.69;;;14.81;100.00
6833;BME280;3454;42.654;23.378;2023-08-08T03:14:13;64516.25;;;14.82;100.00
6833;BME280;3454;42.654;23.378;2023-08-08T03:16:38;64517.16;;;14.80;100.00
6833;BME280;3454;42.654;23.378;2023-08-08T03:19:04;64520.31;;;14.88;100.00
6833;BME280;3454;42.654;23.378;2023-08-08T03:21:31;64526.28;;;14.86;100.00
6833;BME280;3454;42.654;23.378;2023-08-08T03:23:57;64523.75;;;14.86;100.00
6833;BME280;3454;42.654;23.378;2023-08-08T03:26:23;64520.66;;;14.86;100.00
6833;BME280;3454;42.654;23.378;2023-08-08T03:28:49;64503.06;;;14.70;100.00
6833;BME280;3454;42.654;23.378;2023-08-08T03:31:17;64506.91;;;14.73;100.00
6833;BME280;3454;42.654;23.378;2023-08-08T03:33:45;64511.84;;;14.78;100.00
6833;BME280;3454;42.654;23.378;2023-08-08T03:36:10;64504.72;;;14.71;100.00
6833;BME280;3454;42.654;23.378;2023-08-08T03:38:36;64512.94;;;14.79;100.00
6833;BME280;3454;42.654;23.378;2023-08-08T03:41:03;64519.13;;;14.80;100.00
6833;BME280;3454;42.654;23.378;2023-08-08T03:43:28;64514.06;;;14.80;100.00
6833;BME280;3454;42.654;23.378;2023-08-08T03:45:54;64508.69;;;14.70;100.00
6833;BME280;3454;42.654;23.378;2023-08-08T03:48:19;64503.63;;;14.70;100.00
6833;BME280;3454;42.654;23.378;2023-08-08T03:50:45;64504.16;;;14.71;100.00
6833;BME280;3454;42.654;23.378;2023-08-08T03:53:11;64503.28;;;14.72;100.00
6833;BME280;3454;42.654;23.378;2023-08-08T03:55:37;64514.41;;;14.78;100.00
6833;BME280;3454;42.654;23.378;2023-08-08T03:58:03;64522.28;;;14.87;100.00
6833;BME280;3454;42.654;23.378;2023-08-08T04:00:28;64521.53;;;14.84;100.00
6833;BME280;3454;42.654;23.378;2023-08-08T04:02:54;64536.94;;;14.98;100.00
6833;BME280;3454;42.654;23.378;2023-08-08T04:05:19;64531.97;;;14.94;100.00
6833;BME280;3454;42.654;23.378;2023-08-08T04:07:45;64537.47;;;14.99;100.00
6833;BME280;3454;42.654;23.378;2023-08-08T04:10:10;64539.13;;;15.00;100.00
6833;BME280;3454;42.654;23.378;2023-08-08T04:12:36;64530.53;;;14.95;100.00
6833;BME280;3454;42.654;23.378;2023-08-08T04:15:02;64542.22;;;15.01;100.00
6833;BME280;3454;42.654;23.378;2023-08-08T04:17:28;64533.84;;;14.98;100.00
6833;BME280;3454;42.654;23.378;2023-08-08T04:19:53;64523.75;;;14.86;100.00
6833;BME280;3454;42.654;23.378;2023-08-08T04:22:19;64545.19;;;15.06;100.00
6833;BME280;3454;42.654;23.378;2023-08-08T04:24:44;64542.97;;;15.04;100.00
6833;BME280;3454;42.654;23.378;2023-08-08T04:27:10;64531.09;;;14.95;100.00
6833;BME280;3454;42.654;23.378;2023-08-08T04:29:36;64527.03;;;14.89;100.00
6833;BME280;3454;42.654;23.378;2023-08-08T04:32:02;64530.53;;;14.95;100.00
6833;BME280;3454;42.654;23.378;2023-08-08T04:34:28;64526.34;;;14.93;100.00
6833;BME280;3454;42.654;23.378;2023-08-08T04:36:53;64519.00;;;14.84;100.00
6833;BME280;3454;42.654;23.378;2023-08-08T04:39:18;64526.13;;;14.91;100.00
6833;BME280;3454;42.654;23.378;2023-08-08T04:41:44;64562.44;;;15.24;100.00
6833;BME280;3454;42.654;23.378;2023-08-08T04:44:09;64590.50;;;15.50;100.00
6833;BME280;3454;42.654;23.378;2023-08-08T04:46:34;64625.50;;;15.79;100.00
6833;BME280;3454;42.654;23.378;2023-08-08T04:49:00;64649.16;;;16.01;100.00
6833;BME280;3454;42.654;23.378;2023-08-08T04:51:25;64672.47;;;16.25;100.00
6833;BME280;3454;42.654;23.378;2023-08-08T04:53:51;64701.09;;;16.51;100.00
6833;BME280;3454;42.654;23.378;2023-08-08T04:56:16;64668.97;;;16.19;100.00
6833;BME280;3454;42.654;23.378;2023-08-08T04:58:50;64728.09;;;16.75;100.00
6833;BME280;3454;42.654;23.378;2023-08-08T05:01:22;64730.63;;;16.75;100.00
6833;BME280;3454;42.654;23.378;2023-08-08T05:03:48;64729.72;;;16.77;100.00
6833;BME280;3454;42.654;23.378;2023-08-08T05:06:14;64741.66;;;16.86;100.00
6833;BME280;3454;42.654;23.378;2023-08-08T05:08:39;64702.00;;;16.49;100.00
6833;BME280;3454;42.654;23.378;2023-08-08T05:11:04;64757.06;;;17.00;100.00
6833;BME280;3454;42.654;23.378;2023-08-08T05:13:30;64739.66;;;16.86;100.00
6833;BME280;3454;42.654;23.378;2023-08-08T05:15:55;64770.28;;;17.12;100.00
6833;BME280;3454;42.654;23.378;2023-08-08T05:18:21;64725.34;;;16.73;100.00
6833;BME280;3454;42.654;23.378;2023-08-08T05:20:47;64713.00;;;16.59;100.00
6833;BME280;3454;42.654;23.378;2023-08-08T05:23:13;64700.34;;;16.48;100.00
6833;BME280;3454;42.654;23.378;2023-08-08T05:25:38;64719.28;;;16.67;100.00
6833;BME280;3454;42.654;23.378;2023-08-08T05:28:04;64732.84;;;16.77;100.00
6833;BME280;3454;42.654;23.378;2023-08-08T05:30:31;64709.69;;;16.56;100.00
6833;BME280;3454;42.654;23.378;2023-08-08T05:32:56;64665.31;;;16.18;100.00
6833;BME280;3454;42.654;23.378;2023-08-08T05:35:22;64637.81;;;15.93;100.00
6833;BME280;3454;42.654;23.378;2023-08-08T05:37:47;64627.34;;;15.83;100.00
6833;BME280;3454;42.654;23.378;2023-08-08T05:40:13;64649.91;;;16.04;100.00
6833;BME280;3454;42.654;23.378;2023-08-08T05:42:39;64639.25;;;15.92;100.00
6833;BME280;3454;42.654;23.378;2023-08-08T05:45:05;64649.91;;;16.04;100.00
6833;BME280;3454;42.654;23.378;2023-08-08T05:47:32;64667.50;;;16.20;100.00
6833;BME280;3454;42.654;23.378;2023-08-08T05:49:58;64659.25;;;16.13;100.00
6833;BME280;3454;42.654;23.378;2023-08-08T05:52:23;64707.16;;;16.56;100.00
6833;BME280;3454;42.654;23.378;2023-08-08T05:54:48;64703.09;;;16.50;100.00
6833;BME280;3454;42.654;23.378;2023-08-08T05:57:14;64701.66;;;16.51;100.00
6833;BME280;3454;42.654;23.378;2023-08-08T05:59:39;64736.91;;;16.84;100.00
6833;BME280;3454;42.654;23.378;2023-08-08T06:02:06;64739.09;;;16.86;99.84
6833;BME280;3454;42.654;23.378;2023-08-08T06:04:31;64753.97;;;16.99;98.07
6833;BME280;3454;42.654;23.378;2023-08-08T06:06:56;64741.66;;;16.86;99.75
6833;BME280;3454;42.654;23.378;2023-08-08T06:09:22;64745.16;;;16.91;100.00
6833;BME280;3454;42.654;23.378;2023-08-08T06:11:48;64774.34;;;17.18;100.00
6833;BME280;3454;42.654;23.378;2023-08-08T06:14:14;64771.06;;;17.15;100.00
6833;BME280;3454;42.654;23.378;2023-08-08T06:16:39;64753.44;;;16.99;100.00
6833;BME280;3454;42.654;23.378;2023-08-08T06:19:05;64731.41;;;16.78;100.00
6833;BME280;3454;42.654;23.378;2023-08-08T06:21:31;64754.88;;;16.98;99.64
6833;BME280;3454;42.654;23.378;2023-08-08T06:23:56;64751.41;;;16.99;99.37
6833;BME280;3454;42.654;23.378;2023-08-08T06:26:22;64787.91;;;17.28;100.00
6833;BME280;3454;42.654;23.378;2023-08-08T06:28:48;64777.84;;;17.23;99.21
6833;BME280;3454;42.654;23.378;2023-08-08T06:31:14;64733.59;;;16.81;97.13
6833;BME280;3454;42.654;23.378;2023-08-08T06:33:40;64760.03;;;17.05;98.87
6833;BME280;3454;42.654;23.378;2023-08-08T06:36:05;64776.22;;;17.22;96.02
6833;BME280;3454;42.654;23.378;2023-08-08T06:38:31;64808.84;;;17.47;96.37
6833;BME280;3454;42.654;23.378;2023-08-08T06:41:03;64854.28;;;17.91;93.05
6833;BME280;3454;42.654;23.378;2023-08-08T06:43:28;64807.75;;;17.46;91.22
6833;BME280;3454;42.654;23.378;2023-08-08T06:45:53;64789.03;;;17.29;93.70
6833;BME280;3454;42.654;23.378;2023-08-08T06:48:19;64891.00;;;18.22;88.12
6833;BME280;3454;42.654;23.378;2023-08-08T06:50:44;64882.19;;;18.14;88.32
6833;BME280;3454;42.654;23.378;2023-08-08T06:53:10;64904.66;;;18.39;88.92
6833;BME280;3454;42.654;23.378;2023-08-08T06:55:35;64989.06;;;19.16;85.52
6833;BME280;3454;42.654;23.378;2023-08-08T06:58:01;64950.25;;;18.78;81.79
6833;BME280;3454;42.654;23.378;2023-08-08T07:00:26;64920.25;;;18.49;82.85
6833;BME280;3454;42.654;23.378;2023-08-08T07:02:53;64847.09;;;17.84;80.85
6833;BME280;3454;42.654;23.378;2023-08-08T07:05:19;64841.94;;;17.77;84.11
6833;BME280;3454;42.654;23.378;2023-08-08T07:07:44;64821.41;;;17.63;82.08
6833;BME280;3454;42.654;23.378;2023-08-08T07:10:10;64844.69;;;17.80;82.96
6833;BME280;3454;42.654;23.378;2023-08-08T07:12:37;64893.06;;;18.28;80.87
6833;BME280;3454;42.654;23.378;2023-08-08T07:15:03;64971.97;;;19.00;77.45
6833;BME280;3454;42.654;23.378;2023-08-08T07:17:29;64941.97;;;18.71;74.91
6833;BME280;3454;42.654;23.378;2023-08-08T07:19:54;64889.75;;;18.25;73.53
6833;BME280;3454;42.654;23.378;2023-08-08T07:22:20;64873.56;;;18.08;73.24
6833;BME280;3454;42.654;23.378;2023-08-08T07:24:45;64934.47;;;18.66;74.17
6833;BME280;3454;42.654;23.378;2023-08-08T07:27:11;64969.56;;;18.96;75.18
6833;BME280;3454;42.654;23.378;2023-08-08T07:29:37;64896.94;;;18.32;72.42
6833;BME280;3454;42.654;23.378;2023-08-08T07:32:03;64911.06;;;18.42;71.85
6833;BME280;3454;42.654;23.378;2023-08-08T07:34:29;64861.63;;;18.00;72.80
6833;BME280;3454;42.654;23.378;2023-08-08T07:36:55;64939.75;;;18.69;72.54
6833;BME280;3454;42.654;23.378;2023-08-08T07:39:21;64930.94;;;18.61;70.54
6833;BME280;3454;42.654;23.378;2023-08-08T07:41:47;64892.31;;;18.25;74.57
6833;BME280;3454;42.654;23.378;2023-08-08T07:44:12;64908.84;;;18.40;72.23
6833;BME280;3454;42.654;23.378;2023-08-08T07:46:38;64889.56;;;18.23;71.39
6833;BME280;3454;42.654;23.378;2023-08-08T07:49:04;64893.41;;;18.26;70.57
6833;BME280;3454;42.654;23.378;2023-08-08T07:51:30;64907.41;;;18.41;70.08
6833;BME280;3454;42.654;23.378;2023-08-08T07:53:56;64897.81;;;18.30;69.18
6833;BME280;3454;42.654;23.378;2023-08-08T07:56:22;64935.56;;;18.67;72.12
6833;BME280;3454;42.654;23.378;2023-08-08T07:58:48;64990.88;;;19.13;71.92
6833;BME280;3454;42.654;23.378;2023-08-08T08:01:13;64940.53;;;18.72;67.78
6833;BME280;3454;42.654;23.378;2023-08-08T08:03:39;64927.28;;;18.60;70.71
6833;BME280;3454;42.654;23.378;2023-08-08T08:06:05;64969.75;;;18.98;67.81
6833;BME280;3454;42.654;23.378;2023-08-08T08:08:31;64923.44;;;18.56;67.49
6833;BME280;3454;42.654;23.378;2023-08-08T08:10:56;64924.66;;;18.53;69.58
6833;BME280;3454;42.654;23.378;2023-08-08T08:13:21;64997.34;;;19.23;69.25
6833;BME280;3454;42.654;23.378;2023-08-08T08:15:47;65046.50;;;19.68;66.57
6833;BME280;3454;42.654;23.378;2023-08-08T08:18:13;65016.69;;;19.41;64.36
6833;BME280;3454;42.654;23.378;2023-08-08T08:20:40;64973.41;;;18.99;63.41
6833;BME280;3454;42.654;23.378;2023-08-08T08:23:06;64980.25;;;19.08;64.42
6833;BME280;3454;42.654;23.378;2023-08-08T08:25:32;64927.63;;;18.58;64.39
6833;BME280;3454;42.654;23.378;2023-08-08T08:27:57;64940.72;;;18.74;66.81
6833;BME280;3454;42.654;23.378;2023-08-08T08:30:23;64997.00;;;19.25;66.00
6833;BME280;3454;42.654;23.378;2023-08-08T08:32:51;65033.25;;;19.56;63.20
6833;BME280;3454;42.654;23.378;2023-08-08T08:35:17;65044.09;;;19.64;65.25
6833;BME280;3454;42.654;23.378;2023-08-08T08:37:42;65078.53;;;19.97;66.13
6833;BME280;3454;42.654;23.378;2023-08-08T08:40:08;65034.91;;;19.58;64.42
6833;BME280;3454;42.654;23.378;2023-08-08T08:42:35;65022.22;;;19.46;65.77
6833;BME280;3454;42.654;23.378;2023-08-08T08:45:02;65052.56;;;19.74;64.87
6833;BME280;3454;42.654;23.378;2023-08-08T08:47:29;65042.09;;;19.64;64.82
6833;BME280;3454;42.654;23.378;2023-08-08T08:49:56;65023.31;;;19.47;65.43
6833;BME280;3454;42.654;23.378;2023-08-08T08:52:22;65071.91;;;19.91;64.70
6833;BME280;3454;42.654;23.378;2023-08-08T08:54:51;65030.84;;;19.52;62.64
6833;BME280;3454;42.654;23.378;2023-08-08T08:57:17;65029.19;;;19.50;62.97
6833;BME280;3454;42.654;23.378;2023-08-08T08:59:44;64978.59;;;19.06;63.74
6833;BME280;3454;42.654;23.378;2023-08-08T09:02:10;65055.91;;;19.77;65.86
6833;BME280;3454;42.654;23.378;2023-08-08T09:04:36;65061.41;;;19.82;63.87
6833;BME280;3454;42.654;23.378;2023-08-08T09:07:05;65068.59;;;19.88;61.99
6833;BME280;3454;42.654;23.378;2023-08-08T09:09:34;65066.03;;;19.88;64.44
6833;BME280;3454;42.654;23.378;2023-08-08T09:12:03;65152.56;;;20.65;63.66
6833;BME280;3454;42.654;23.378;2023-08-08T09:14:29;65086.81;;;20.05;60.54
6833;BME280;3454;42.654;23.378;2023-08-08T09:16:55;65050.91;;;19.72;61.05
6833;BME280;3454;42.654;23.378;2023-08-08T09:19:23;65041.00;;;19.63;62.05
6833;BME280;3454;42.654;23.378;2023-08-08T09:21:50;65039.88;;;19.62;63.11
6833;BME280;3454;42.654;23.378;2023-08-08T09:24:17;65049.63;;;19.69;62.15
6833;BME280;3454;42.654;23.378;2023-08-08T09:26:44;65076.88;;;19.96;61.70
6833;BME280;3454;42.654;23.378;2023-08-08T09:29:12;65076.88;;;19.96;61.23
6833;BME280;3454;42.654;23.378;2023-08-08T09:31:39;65052.56;;;19.74;60.01
6833;BME280;3454;42.654;23.378;2023-08-08T09:34:05;65046.50;;;19.68;61.71
6833;BME280;3454;42.654;23.378;2023-08-08T09:36:31;65087.38;;;20.05;60.37
6833;BME280;3454;42.654;23.378;2023-08-08T09:38:58;65093.78;;;20.09;60.50
6833;BME280;3454;42.654;23.378;2023-08-08T09:41:24;65113.91;;;20.30;59.45
6833;BME280;3454;42.654;23.378;2023-08-08T09:43:53;65117.56;;;20.31;60.05
6833;BME280;3454;42.654;23.378;2023-08-08T09:46:20;65122.41;;;20.40;58.33
6833;BME280;3454;42.654;23.378;2023-08-08T09:48:47;65193.50;;;21.02;59.43
6833;BME280;3454;42.654;23.378;2023-08-08T09:51:13;65204.22;;;21.14;55.87
6833;BME280;3454;42.654;23.378;2023-08-08T09:53:41;65181.31;;;20.91;57.30
6833;BME280;3454;42.654;23.378;2023-08-08T09:56:07;65187.41;;;20.97;55.93
6833;BME280;3454;42.654;23.378;2023-08-08T09:58:32;65159.22;;;20.71;55.35
6833;BME280;3454;42.654;23.378;2023-08-08T10:00:58;65157.34;;;20.67;55.08
6833;BME280;3454;42.654;23.378;2023-08-08T10:03:24;65205.66;;;21.13;54.22
6833;BME280;3454;42.654;23.378;2023-08-08T10:05:51;65145.38;;;20.58;55.48
6833;BME280;3454;42.654;23.378;2023-08-08T10:08:18;65245.47;;;21.49;55.32
6833;BME280;3454;42.654;23.378;2023-08-08T10:10:46;65232.56;;;21.35;53.24
6833;BME280;3454;42.654;23.378;2023-08-08T10:13:25;65206.78;;;21.14;53.13
6833;BME280;3454;42.654;23.378;2023-08-08T10:15:52;65201.78;;;21.10;53.31
6833;BME280;3454;42.654;23.378;2023-08-08T10:18:20;65193.50;;;21.02;54.13
6833;BME280;3454;42.654;23.378;2023-08-08T10:20:48;65204.00;;;21.12;55.12
6833;BME280;3454;42.654;23.378;2023-08-08T10:23:18;65259.50;;;21.64;54.68
6833;BME280;3454;42.654;23.378;2023-08-08T10:25:45;65284.78;;;21.85;51.56
6833;BME280;3454;42.654;23.378;2023-08-08T10:28:13;65246.59;;;21.50;51.78
6833;BME280;3454;42.654;23.378;2023-08-08T10:30:47;65313.19;;;22.13;51.71
6833;BME280;3454;42.654;23.378;2023-08-08T10:35:54;65263.72;;;21.66;52.75
6833;BME280;3454;42.654;23.378;2023-08-08T10:38:20;65307.47;;;22.06;51.69
6833;BME280;3454;42.654;23.378;2023-08-08T10:40:47;65293.63;;;21.93;51.04
6833;BME280;3454;42.654;23.378;2023-08-08T10:43:12;65286.44;;;21.87;51.50
6833;BME280;3454;42.654;23.378;2023-08-08T10:45:41;65265.72;;;21.65;52.80
6833;BME280;3454;42.654;23.378;2023-08-08T10:48:09;65267.59;;;21.69;52.13
6833;BME280;3454;42.654;23.378;2023-08-08T10:50:41;65294.19;;;21.94;52.15
6833;BME280;3454;42.654;23.378;2023-08-08T10:53:08;65257.66;;;21.60;52.29
6833;BME280;3454;42.654;23.378;2023-08-08T10:55:36;65296.41;;;21.96;52.09
6833;BME280;3454;42.654;23.378;2023-08-08T10:58:07;65273.69;;;21.75;52.07
6833;BME280;3454;42.654;23.378;2023-08-08T11:00:35;65346.19;;;22.41;51.37
6833;BME280;3454;42.654;23.378;2023-08-08T11:03:02;65293.63;;;21.93;51.92
6833;BME280;3454;42.654;23.378;2023-08-08T11:05:31;65323.13;;;22.22;52.14
6833;BME280;3454;42.654;23.378;2023-08-08T11:07:59;65373.34;;;22.66;49.46
6833;BME280;3454;42.654;23.378;2023-08-08T11:10:24;65338.44;;;22.34;50.13
6833;BME280;3454;42.654;23.378;2023-08-08T11:13:04;65315.75;;;22.13;50.72
6833;BME280;3454;42.654;23.378;2023-08-08T11:15:32;65315.19;;;22.13;49.90
6833;BME280;3454;42.654;23.378;2023-08-08T11:17:59;65311.69;;;22.07;50.99
6833;BME280;3454;42.654;23.378;2023-08-08T11:20:29;65350.97;;;22.43;49.81
6833;BME280;3454;42.654;23.378;2023-08-08T11:22:56;65313.53;;;22.11;49.96
6833;BME280;3454;42.654;23.378;2023-08-08T11:25:22;65313.75;;;22.14;49.46
6833;BME280;3454;42.654;23.378;2023-08-08T11:27:54;65382.75;;;22.74;50.40
6833;BME280;3454;42.654;23.378;2023-08-08T11:30:21;65391.81;;;22.85;48.85
6833;BME280;3454;42.654;23.378;2023-08-08T11:32:48;65442.22;;;23.30;47.59
6833;BME280;3454;42.654;23.378;2023-08-08T11:35:20;65451.66;;;23.39;46.96
6833;BME280;3454;42.654;23.378;2023-08-08T11:37:47;65440.91;;;23.27;48.19
6833;BME280;3454;42.654;23.378;2023-08-08T11:40:14;65485.25;;;23.67;46.49
6833;BME280;3454;42.654;23.378;2023-08-08T11:42:41;65453.66;;;23.39;48.03
6833;BME280;3454;42.654;23.378;2023-08-08T11:45:11;65500.06;;;23.85;46.01
6833;BME280;3454;42.654;23.378;2023-08-08T11:47:38;65491.00;;;23.75;45.94
6833;BME280;3454;42.654;23.378;2023-08-08T11:50:06;65433.34;;;23.22;46.68
6833;BME280;3454;42.654;23.378;2023-08-08T11:52:33;65415.97;;;23.04;47.01
6833;BME280;3454;42.654;23.378;2023-08-08T11:54:59;65417.28;;;23.08;46.87
6833;BME280;3454;42.654;23.378;2023-08-08T11:57:27;65415.97;;;23.04;46.94
6833;BME280;3454;42.654;23.378;2023-08-08T11:59:53;65444.44;;;23.32;48.84
6833;BME280;3454;42.654;23.378;2023-08-08T12:02:19;65462.19;;;23.49;46.74
6833;BME280;3454;42.654;23.378;2023-08-08T12:04:45;65454.41;;;23.42;47.80
6833;BME280;3454;42.654;23.378;2023-08-08T12:07:11;65477.50;;;23.60;46.23
6833;BME280;3454;42.654;23.378;2023-08-08T12:09:39;65506.50;;;23.89;45.94
6833;BME280;3454;42.654;23.378;2023-08-08T12:12:04;65466.97;;;23.51;46.34
6833;BME280;3454;42.654;23.378;2023-08-08T12:14:36;65452.91;;;23.35;46.31
6833;BME280;3454;42.654;23.378;2023-08-08T12:17:02;65510.56;;;23.95;46.08
6833;BME280;3454;42.654;23.378;2023-08-08T12:19:28;65568.81;;;24.48;45.48
6833;BME280;3454;42.654;23.378;2023-08-08T12:21:54;65596.16;;;24.68;44.70
6833;BME280;3454;42.654;23.378;2023-08-08T12:24:20;65623.53;;;24.95;45.42
6833;BME280;3454;42.654;23.378;2023-08-08T12:26:45;65624.44;;;24.93;43.23
6833;BME280;3454;42.654;23.378;2023-08-08T12:29:12;65553.44;;;24.29;44.20
6833;BME280;3454;42.654;23.378;2023-08-08T12:31:37;65546.78;;;24.23;44.29
6833;BME280;3454;42.654;23.378;2023-08-08T12:34:03;65537.38;;;24.14;44.90
6833;BME280;3454;42.654;23.378;2023-08-08T12:36:29;65506.50;;;23.89;45.22
6833;BME280;3454;42.654;23.378;2023-08-08T12:38:55;65471.19;;;23.52;46.12
6833;BME280;3454;42.654;23.378;2023-08-08T12:41:20;65480.47;;;23.65;45.73
6833;BME280;3454;42.654;23.378;2023-08-08T12:43:46;65474.91;;;23.60;46.01
6833;BME280;3454;42.654;23.378;2023-08-08T12:46:11;65530.16;;;24.08;45.82
6833;BME280;3454;42.654;23.378;2023-08-08T12:48:37;65544.94;;;24.19;44.02
6833;BME280;3454;42.654;23.378;2023-08-08T12:51:02;65500.22;;;23.81;45.36
6833;BME280;3454;42.654;23.378;2023-08-08T12:53:28;65545.69;;;24.22;44.46
6833;BME280;3454;42.654;23.378;2023-08-08T12:55:54;65551.22;;;24.27;44.39
6833;BME280;3454;42.654;23.378;2023-08-08T12:58:20;65578.41;;;24.52;44.01
6833;BME280;3454;42.654;23.378;2023-08-08T13:00:45;65608.91;;;24.79;43.83
6833;BME280;3454;42.654;23.378;2023-08-08T13:03:11;65606.16;;;24.77;43.17